Hauptseite
METAR-TAF:

METAR-TAF

Flughäfen :

Flughafen Isle of Man

Isle of Man,

Breite: 54-05N, Länge: 004-38W, Höhe: 17 m

Beobachtung

Neuester Wetterbericht von vor 25 Minuten, um 19:50 UTC
Wind 7 kt aus Nord/Nordwest, variierte zwischen West/Südwest und Nordost
Temperatur 5°C
Luftfeuchtigkeit 70%
Luftdruck 1024 hPa
Sichtweite 10 km oder mehr
Leicht bewölkt in der Höhe von 2000 ft

METAR: EGNS 201950Z 34007KT 250V050 9999 FEW020 05/00 Q1024 NOSIG

Zeit: 20:15 (20:15 UTC)

Prognose

Neuester Wetterbericht von vor 3 Stunden und 15 Minuten, um 17:00 UTC
Gültige Prognose vom 20 um 18 UTC bis 20 um 22 UTC
Wind 10 kt aus Nord
Sichtweite 10 km oder mehr
Leicht bewölkt in der Höhe von 2000 ft

TAF: EGNS 201700Z 2018/2022 35010KT 9999 FEW020

Wetterbeobachtungen und Prognosen von mehr als 4000 Flughäfen (METAR und TAF Bericht).

Die verfügbaren Stationen werden durch gelbe und rote Markierungen auf der Karte dargestellt.

Führen Sie die Maus auf sie, um den Namen der Station zu sehen.

Darauf klicken, um die Beobachtung von Wetterbeobachtungen und Prognosen zu sehen.

Um die Karte zu ändern : klicken Sie auf den grünen Tasten mit einem schwarzen Kreuz Zum Vergrößern, auf den grünen Button mit einem Gedankenstrich zu verkleinern, oder auf die grünen Pfeile für benachbarte Karten.


METAR-TAF: